Main page
METAR-TAF:

METAR-TAF

Airports :

Leuchars Station

Leuchars, Scotland

latitude: 56-23N, longitude: 002-52W, elevation: 12 m

Current weather observation

The report was made 56 minutes ago, at 14:50 UTC
Wind 19 kt from the West
Temperature 13°C
Humidity 62%
Pressure 1022 hPa
Visibility 10 km or more
no clouds below 1500 m and no cumulonimbus

METAR: EGQL 211450Z 28019KT CAVOK 13/06 Q1022 BLU

Time: 16:46 (15:46 UTC)

Forecast

The report was made 2 hours and 3 minutes ago, at 13:43 UTC
Forecast valid from 21 at 15 UTC to 21 at 24 UTC
Wind 13 kt from the West
Visibility 10 km or more
Few clouds at a height of 2500 ft
Scattered clouds at a height of 4500 ft
Probability 40% :
Temporary
from 21 at 15 UTC to 21 at 24 UTC
Wind 16 kt from the West with gusts up to 26 kt

TAF: EGQL 211343Z 2115/2124 27013KT 9999 FEW025 SCT045 PROB40 TEMPO 2115/2124 28016G26KT

Weather observations and forecasts of more than 4000 airports (METAR and TAF reports).

The available stations are represented by yellow and red dots on the map.

Hover mouse over dot to see the name of the station.

Then click to see weather observations and forecasts.

To change the map : click on the green buttons with a black cross to zoom in, on the green button with a dash to zoom out, or on the green arrows for adjacent maps.


METAR-TAF: